aviador You're here:

LFOE Decoded Metar

EVREUX in FRANCE
Report Time2018-07-18 19:30:00
UTC Time2018-07-18 20:04:28
Flight Rules vfr VFR
Wind350° at 08 kt
W.Decomp.*RWY 04: 5.2 kt HW 6 kt LCW
W.Rank350° ranks 24
Current wind is above 350° avg. (5.5)
Visibility9999 m
Phenomena:N/A
Clouds:N/A
Expected CloudBase > 5,200 ft AGL from Temp-Dew spread
CeilingNone
Temp23°C (ISA +9)
Dew Point10°C (44% RH)
AAT20.2°C
QNH1017 hPa
Density Alt1,552 ft
Elevation479 ft
Report Wrong Elevation
Raw Report
LFOE 181930Z AUTO 35008KT CAVOK 23/10 Q1017 NOSIG=

Extra information for LFOE:More info

Metar Taf Metar & Taf Last 4 Metars F.Rules Stats Wind Profile Meteogram Temp Stats Airport Information Weather charts Add Link Nearby VenuesMetar ALERT Operation Metar Decoded Social comments